Time;durP1;ratioP1;P1;durP2;ratioP2;P2;SDS_P1;SDS_P2;PMS_P1;PMS_P2;Temp;Humidity;BMP_temperature;BMP_pressure;BME280_temperature;BME280_humidity;BME280_pressure;Samples;Min_cycle;Max_cycle;Signal;HPM_P1;HPM_P2
2023/08/19 00:01:36;;;;;;;17.02;9.10;;;;;;;28.36;70.46;100438.88;5053156;28;20061;-61
2023/08/19 00:04:04;;;;;;;16.05;8.77;;;;;;;28.33;70.77;100440.53;5053265;28;20056;-62
2023/08/19 00:06:33;;;;;;;12.43;9.35;;;;;;;28.40;70.61;100436.75;5052782;28;20053;-61
2023/08/19 00:09:03;;;;;;;14.25;8.90;;;;;;;28.37;70.53;100437.63;5052953;28;20052;-61
2023/08/19 00:11:32;;;;;;;14.77;8.57;;;;;;;28.27;70.96;100445.16;5051968;28;20053;-61
2023/08/19 00:13:59;;;;;;;11.38;8.27;;;;;;;28.30;70.86;100441.44;5052827;28;20061;-63
2023/08/19 00:16:27;;;;;;;12.35;8.93;;;;;;;27.96;72.24;100443.84;5036842;28;20056;-62
2023/08/19 00:18:54;;;;;;;10.63;8.27;;;;;;;28.06;72.27;100448.47;5033205;28;20049;-61
2023/08/19 00:21:22;;;;;;;15.30;8.63;;;;;;;28.17;71.88;100451.88;5044140;28;20045;-60
2023/08/19 00:23:50;;;;;;;14.70;9.57;;;;;;;28.26;71.42;100457.69;5052650;28;20538;-62
2023/08/19 00:26:17;;;;;;;12.40;8.38;;;;;;;28.29;70.70;100473.84;5052417;28;20496;-62
2023/08/19 00:28:44;;;;;;;13.68;8.27;;;;;;;28.17;70.92;100471.69;5051084;28;20053;-62
2023/08/19 00:31:12;;;;;;;12.10;8.27;;;;;;;28.05;72.19;100474.41;5070639;28;20052;-61
2023/08/19 00:33:39;;;;;;;17.00;8.50;;;;;;;28.04;71.93;100467.94;5071543;28;20561;-61
2023/08/19 00:36:07;;;;;;;15.25;8.52;;;;;;;27.88;72.86;100469.88;5056362;28;20041;-61
2023/08/19 00:38:34;;;;;;;14.23;8.95;;;;;;;27.99;72.44;100476.13;5050807;28;20052;-63
2023/08/19 00:41:03;;;;;;;15.60;8.57;;;;;;;28.16;71.98;100469.28;5034252;28;20072;-64
2023/08/19 00:43:31;;;;;;;13.48;7.95;;;;;;;28.17;71.28;100468.06;5052452;28;20041;-63
2023/08/19 00:45:58;;;;;;;15.02;8.43;;;;;;;28.16;71.14;100463.59;5052635;28;20036;-64
2023/08/19 00:48:26;;;;;;;13.60;7.95;;;;;;;28.12;71.37;100474.25;5052469;28;20064;-64
2023/08/19 00:50:54;;;;;;;12.25;7.82;;;;;;;27.91;72.12;100469.00;5052778;28;20045;-64
2023/08/19 00:53:22;;;;;;;17.23;8.52;;;;;;;28.09;71.74;100475.91;5055241;28;20495;-63
2023/08/19 00:55:49;;;;;;;15.35;8.50;;;;;;;28.14;71.68;100466.09;5053426;28;20049;-62
2023/08/19 00:58:18;;;;;;;14.00;8.30;;;;;;;28.14;71.25;100468.94;5054086;28;20053;-61
2023/08/19 01:00:46;;;;;;;10.40;7.70;;;;;;;27.94;71.94;100462.50;5054755;28;20063;-61
2023/08/19 01:03:13;;;;;;;16.48;8.45;;;;;;;28.12;71.41;100469.38;5038559;28;20055;-60
2023/08/19 01:06:12;;;;;;;12.15;8.80;;;;;;;28.17;70.65;100468.06;5055058;28;20037;-62
2023/08/19 01:08:53;;;;;;;14.70;8.25;;;;;;;27.88;72.25;100478.38;5054324;28;20499;-61
2023/08/19 01:11:42;;;;;;;12.85;8.77;;;;;;;27.90;71.57;100478.72;5054851;28;20204;-62
2023/08/19 01:14:14;;;;;;;16.48;8.57;;;;;;;27.87;72.24;100480.41;5055343;28;20404;-60
2023/08/19 01:16:43;;;;;;;13.55;9.07;;;;;;;27.95;71.84;100481.88;5055346;28;20060;-62
2023/08/19 01:19:29;;;;;;;13.63;8.70;;;;;;;28.02;71.52;100487.38;5054506;28;20052;-60
2023/08/19 01:22:05;;;;;;;15.38;8.60;;;;;;;28.02;71.28;100493.06;5055893;28;20045;-61
2023/08/19 01:24:38;;;;;;;16.63;8.30;;;;;;;28.06;70.91;100492.97;5051795;28;20045;-61
2023/08/19 01:27:06;;;;;;;13.43;8.52;;;;;;;28.09;70.76;100494.97;5052455;28;20037;-60
2023/08/19 01:29:34;;;;;;;13.63;8.30;;;;;;;27.93;71.15;100500.56;5059206;28;20056;-60
2023/08/19 01:32:03;;;;;;;14.63;8.50;;;;;;;28.09;70.55;100494.97;5074663;28;20048;-60
2023/08/19 01:34:30;;;;;;;13.38;8.02;;;;;;;28.09;69.70;100512.72;5074015;28;20057;-61
2023/08/19 01:37:01;;;;;;;16.05;7.88;;;;;;;28.23;68.59;100503.91;5055516;28;20056;-61
2023/08/19 01:39:29;;;;;;;13.18;7.55;;;;;;;28.33;67.69;100511.38;5054286;28;20049;-61
2023/08/19 01:41:57;;;;;;;13.20;8.13;;;;;;;28.18;67.59;100514.97;5054550;28;20615;-61
2023/08/19 01:44:26;;;;;;;11.13;6.93;;;;;;;28.11;67.95;100521.59;5054001;28;20518;-63
2023/08/19 01:46:53;;;;;;;12.95;7.30;;;;;;;28.16;67.40;100529.56;5037338;28;20052;-62
2023/08/19 01:49:20;;;;;;;12.45;6.28;;;;;;;28.03;67.13;100525.00;5054452;28;20057;-63
2023/08/19 01:51:50;;;;;;;12.98;7.18;;;;;;;27.90;66.60;100521.19;5053791;28;20053;-62
2023/08/19 01:54:18;;;;;;;11.55;6.70;;;;;;;27.76;66.48;100530.78;5054867;28;20546;-62
2023/08/19 01:56:45;;;;;;;12.07;7.22;;;;;;;27.74;66.58;100536.88;5054835;28;20190;-61
2023/08/19 01:59:12;;;;;;;13.70;6.38;;;;;;;27.75;66.13;100529.19;5053532;28;20468;-63
2023/08/19 02:01:39;;;;;;;10.13;6.15;;;;;;;27.73;65.86;100534.47;5053049;28;20060;-63
2023/08/19 02:04:07;;;;;;;10.43;6.53;;;;;;;27.82;65.56;100531.88;5053508;28;20063;-63
2023/08/19 02:06:37;;;;;;;12.55;5.97;;;;;;;28.07;64.18;100526.53;5054404;28;20049;-63
2023/08/19 02:09:04;;;;;;;10.32;5.72;;;;;;;27.82;64.81;100539.56;5053095;28;20064;-60
2023/08/19 02:11:32;;;;;;;11.50;6.35;;;;;;;27.67;65.43;100534.19;5053348;28;20044;-63
2023/08/19 02:14:00;;;;;;;10.98;6.22;;;;;;;27.66;64.91;100540.28;5054148;28;20049;-62
2023/08/19 02:16:27;;;;;;;10.57;6.00;;;;;;;27.50;65.04;100535.31;5036322;28;20049;-63
2023/08/19 02:18:57;;;;;;;11.35;6.00;;;;;;;27.25;66.20;100543.41;5054721;28;20049;-64
2023/08/19 02:21:24;;;;;;;13.77;5.90;;;;;;;27.45;65.34;100546.34;5055143;28;20053;-60
2023/08/19 02:23:53;;;;;;;10.18;6.13;;;;;;;27.29;65.49;100549.00;5059906;28;20045;-61
2023/08/19 02:26:20;;;;;;;11.45;6.18;;;;;;;27.18;66.04;100551.25;5053572;28;20447;-61
2023/08/19 02:28:48;;;;;;;10.18;6.18;;;;;;;27.11;66.38;100554.97;5053252;28;20397;-61
2023/08/19 02:31:15;;;;;;;9.77;5.93;;;;;;;27.29;65.92;100558.34;5073184;28;20059;-63
2023/08/19 02:33:43;;;;;;;8.73;5.88;;;;;;;27.49;64.93;100558.41;5072594;28;20059;-63
2023/08/19 02:36:12;;;;;;;9.82;6.47;;;;;;;27.10;65.91;100566.72;5059212;28;20415;-61
2023/08/19 02:38:39;;;;;;;12.88;6.03;;;;;;;26.92;66.73;100567.00;5057501;28;20048;-60
2023/08/19 02:41:08;;;;;;;17.05;6.18;;;;;;;27.02;66.25;100566.06;5073887;28;20058;-60
2023/08/19 02:43:37;;;;;;;;;;;;;;;27.19;65.42;100569.81;5066243;28;20430;-61
2023/08/19 02:46:04;;;;;;;13.48;6.22;;;;;;;26.99;65.88;100571.78;5054066;28;19920;-61
2023/08/19 02:48:32;;;;;;;10.18;6.10;;;;;;;27.01;65.53;100578.56;5036394;28;20044;-60
2023/08/19 02:50:59;;;;;;;15.73;6.22;;;;;;;27.03;66.04;100584.59;5052974;28;20041;-62
2023/08/19 02:53:28;;;;;;;10.07;6.03;;;;;;;26.80;66.69;100592.25;5053543;28;20610;-60
2023/08/19 02:55:56;;;;;;;17.92;7.10;;;;;;;26.74;67.23;100597.59;5052737;28;20532;-61
2023/08/19 02:58:25;;;;;;;8.02;6.03;;;;;;;26.72;67.75;100602.06;5053873;28;20052;-62
2023/08/19 03:00:52;;;;;;;10.27;6.13;;;;;;;26.61;67.81;100602.16;5054226;28;20053;-62
2023/08/19 03:03:19;;;;;;;12.25;6.22;;;;;;;26.65;67.77;100609.38;5053602;28;20056;-63
2023/08/19 03:05:47;;;;;;;9.05;6.03;;;;;;;26.85;67.24;100594.59;5053874;28;20060;-62
2023/08/19 03:08:14;;;;;;;12.32;6.35;;;;;;;26.80;67.40;100597.91;5053521;28;20041;-62
2023/08/19 03:10:42;;;;;;;10.27;6.32;;;;;;;26.85;66.86;100591.78;5052396;28;20052;-62
2023/08/19 03:13:09;;;;;;;14.43;6.60;;;;;;;26.59;67.57;100593.31;5051890;28;20053;-62
2023/08/19 03:15:38;;;;;;;13.32;6.63;;;;;;;26.79;67.34;100599.13;5052863;28;20060;-64
2023/08/19 03:18:06;;;;;;;10.48;6.53;;;;;;;26.59;67.57;100607.44;5049321;28;20412;-63
2023/08/19 03:20:34;;;;;;;10.02;6.40;;;;;;;26.62;67.45;100606.59;5052298;28;20049;-60
2023/08/19 03:23:01;;;;;;;10.15;6.47;;;;;;;26.74;67.28;100605.25;5053116;28;20053;-60
2023/08/19 03:25:29;;;;;;;10.32;6.80;;;;;;;26.79;66.48;100610.44;5048863;28;20065;-60
2023/08/19 03:27:56;;;;;;;14.85;7.18;;;;;;;26.61;66.57;100614.28;5052117;28;20045;-63
2023/08/19 03:30:24;;;;;;;9.73;6.38;;;;;;;26.46;67.07;100612.88;5064117;28;20072;-64
2023/08/19 03:32:52;;;;;;;10.38;6.43;;;;;;;26.23;67.54;100614.78;5072051;28;20057;-63
2023/08/19 03:35:20;;;;;;;11.98;5.93;;;;;;;26.27;67.32;100616.34;5063302;28;20276;-63
2023/08/19 03:37:47;;;;;;;8.57;5.85;;;;;;;25.99;67.76;100622.28;5053074;28;20056;-63
2023/08/19 03:40:14;;;;;;;8.55;6.20;;;;;;;26.11;67.66;100632.28;5069215;28;20174;-62
2023/08/19 03:42:42;;;;;;;11.40;6.30;;;;;;;26.16;67.40;100624.16;5071709;28;20052;-63
2023/08/19 03:45:09;;;;;;;13.00;5.82;;;;;;;26.14;67.34;100642.72;5051717;28;20041;-63
2023/08/19 03:47:40;;;;;;;10.77;6.25;;;;;;;26.00;67.49;100638.00;5052242;28;20715;-63
2023/08/19 03:50:07;;;;;;;13.23;6.50;;;;;;;26.07;66.94;100646.44;5051625;28;20063;-61
2023/08/19 03:52:35;;;;;;;11.38;6.18;;;;;;;25.95;66.63;100648.94;5051848;28;20053;-61
2023/08/19 03:55:02;;;;;;;13.45;6.40;;;;;;;26.12;66.09;100650.81;5053271;28;20057;-60
2023/08/19 03:57:30;;;;;;;12.82;6.55;;;;;;;26.19;65.53;100660.00;5051532;28;20053;-63
2023/08/19 03:59:58;;;;;;;9.70;5.95;;;;;;;26.15;65.19;100652.81;5034634;28;20057;-63
2023/08/19 04:02:25;;;;;;;7.90;5.80;;;;;;;25.92;66.41;100659.06;5032018;28;20057;-63
2023/08/19 04:05:00;;;;;;;12.38;6.63;;;;;;;25.88;66.34;100672.41;5033201;28;20065;-62
2023/08/19 04:07:28;;;;;;;9.18;6.18;;;;;;;25.94;66.54;100675.59;5042285;28;20400;-63
2023/08/19 04:09:56;;;;;;;10.82;5.93;;;;;;;25.89;65.48;100668.34;5035429;28;20053;-63
2023/08/19 04:12:24;;;;;;;10.05;6.45;;;;;;;25.90;65.26;100677.63;5052938;28;20049;-61
2023/08/19 04:14:52;;;;;;;11.18;6.47;;;;;;;26.05;64.96;100682.75;5050718;28;20063;-60
2023/08/19 04:17:19;;;;;;;9.30;5.68;;;;;;;26.13;65.09;100681.47;5051565;28;20528;-60
2023/08/19 04:19:47;;;;;;;10.43;5.55;;;;;;;26.14;65.02;100683.06;5052440;28;20049;-60
2023/08/19 04:22:15;;;;;;;12.93;5.90;;;;;;;25.89;65.13;100695.78;5052464;28;20064;-61
2023/08/19 04:24:43;;;;;;;10.73;5.38;;;;;;;25.83;65.93;100694.63;5052383;28;20045;-60
2023/08/19 04:27:10;;;;;;;9.20;5.15;;;;;;;25.89;64.01;100707.09;5037266;28;20059;-60
2023/08/19 04:29:37;;;;;;;12.00;5.10;;;;;;;25.72;64.82;100705.22;5061607;28;20048;-61
2023/08/19 04:32:05;;;;;;;10.88;4.97;;;;;;;25.50;64.77;100710.22;5064170;28;20166;-60
2023/08/19 04:34:33;;;;;;;8.80;5.10;;;;;;;25.75;65.17;100721.31;5055044;28;20060;-60
2023/08/19 04:37:03;;;;;;;10.38;4.68;;;;;;;25.96;64.06;100726.78;5039002;28;20060;-63
2023/08/19 04:39:31;;;;;;;10.68;5.38;;;;;;;25.75;64.09;100724.91;5054029;28;20480;-62
2023/08/19 04:42:07;;;;;;;12.68;4.75;;;;;;;25.66;63.87;100726.63;5037933;28;20057;-62
2023/08/19 04:44:34;;;;;;;9.02;4.40;;;;;;;25.58;63.53;100723.88;5049627;28;20055;-63
2023/08/19 04:47:03;;;;;;;10.23;4.50;;;;;;;25.52;64.30;100733.19;5055129;28;20057;-63
2023/08/19 04:49:31;;;;;;;8.27;3.93;;;;;;;25.53;64.08;100737.59;5054801;28;20072;-64
2023/08/19 04:51:58;;;;;;;8.85;4.28;;;;;;;25.42;64.07;100742.50;5035293;28;20292;-62
2023/08/19 04:54:26;;;;;;;8.77;4.28;;;;;;;25.56;64.05;100748.06;5018594;28;20436;-64
2023/08/19 04:56:53;;;;;;;9.48;4.63;;;;;;;25.65;63.56;100753.25;5051929;28;20552;-62
2023/08/19 04:59:21;;;;;;;6.43;4.13;;;;;;;25.81;62.81;100757.13;5047649;28;20048;-65
2023/08/19 05:01:48;;;;;;;11.63;4.18;;;;;;;25.80;61.96;100758.38;5055658;28;20060;-63
2023/08/19 05:04:15;;;;;;;9.95;4.15;;;;;;;25.67;62.50;100753.63;5055620;28;20049;-63
2023/08/19 05:06:44;;;;;;;7.55;3.72;;;;;;;25.65;62.25;100754.03;5054966;28;20049;-63
2023/08/19 05:09:11;;;;;;;8.15;4.20;;;;;;;25.57;62.87;100760.97;5055799;28;20049;-63
2023/08/19 05:11:40;;;;;;;13.00;4.45;;;;;;;25.69;62.80;100762.47;5054398;28;20044;-63
2023/08/19 05:14:09;;;;;;;9.75;3.90;;;;;;;25.66;62.37;100766.94;5054713;28;20056;-63
2023/08/19 05:16:36;;;;;;;7.70;3.80;;;;;;;25.86;61.92;100764.34;5054413;28;20053;-67
2023/08/19 05:19:18;;;;;;;9.60;3.60;;;;;;;25.66;62.09;100771.78;5054570;28;20056;-63
2023/08/19 05:21:50;;;;;;;7.03;3.80;;;;;;;25.34;62.87;100769.13;5055185;28;20064;-64
2023/08/19 05:24:18;;;;;;;12.57;4.10;;;;;;;25.44;63.08;100782.38;5053986;28;20041;-62
2023/08/19 05:26:45;;;;;;;10.02;4.28;;;;;;;25.10;64.09;100775.72;5054549;28;20084;-62
2023/08/19 05:29:13;;;;;;;16.33;3.60;;;;;;;25.12;64.82;100774.06;5039487;28;20723;-60
2023/08/19 05:31:41;;;;;;;10.32;4.00;;;;;;;25.17;64.42;100784.94;5074551;28;20059;-61
2023/08/19 05:34:09;;;;;;;9.32;4.10;;;;;;;25.19;64.85;100784.53;5075411;28;20060;-63
2023/08/19 05:36:37;;;;;;;6.72;4.18;;;;;;;25.43;63.74;100780.78;5056499;28;20496;-61
2023/08/19 05:39:05;;;;;;;7.43;4.00;;;;;;;25.16;64.48;100796.63;5063367;28;20053;-62
2023/08/19 05:41:32;;;;;;;9.05;4.32;;;;;;;25.35;64.04;100807.41;5057590;28;20056;-61
2023/08/19 05:44:00;;;;;;;11.02;4.10;;;;;;;25.62;63.49;100804.84;5065422;28;20049;-61
2023/08/19 05:46:27;;;;;;;9.80;3.80;;;;;;;25.59;63.51;100795.19;5055522;28;20059;-61
2023/08/19 05:48:55;;;;;;;10.00;4.28;;;;;;;25.40;63.64;100804.19;5054283;28;20041;-61
2023/08/19 05:51:22;;;;;;;9.48;4.03;;;;;;;25.53;63.39;100796.84;5053958;28;20049;-61
2023/08/19 05:53:50;;;;;;;8.57;3.85;;;;;;;25.54;63.67;100801.28;5055357;28;20059;-60
2023/08/19 05:56:18;;;;;;;7.45;3.83;;;;;;;25.67;63.10;100808.03;5055216;28;20049;-61
2023/08/19 05:58:46;;;;;;;7.10;3.50;;;;;;;25.50;62.70;100804.13;5054865;28;20053;-62
2023/08/19 06:01:13;;;;;;;10.05;3.47;;;;;;;25.65;62.42;100807.63;5054721;28;20045;-62
2023/08/19 06:03:41;;;;;;;11.13;3.53;;;;;;;25.60;62.79;100805.25;5055187;28;20068;-61
2023/08/19 06:06:08;;;;;;;7.80;3.70;;;;;;;25.65;62.19;100810.47;5052881;28;20059;-61
2023/08/19 06:08:36;;;;;;;7.22;3.65;;;;;;;25.87;61.90;100813.94;5037290;28;20049;-61
2023/08/19 06:11:06;;;;;;;10.65;4.00;;;;;;;25.80;61.47;100819.66;5053791;28;20056;-60
2023/08/19 06:13:35;;;;;;;10.70;3.53;;;;;;;25.70;62.32;100820.53;5054409;28;20056;-61
2023/08/19 06:16:03;;;;;;;4.90;2.90;;;;;;;25.64;61.79;100831.44;5053204;28;20055;-62
2023/08/19 06:18:31;;;;;;;7.53;3.17;;;;;;;25.66;62.55;100831.84;5037222;28;20037;-60
2023/08/19 06:21:03;;;;;;;8.35;3.67;;;;;;;25.91;61.87;100845.78;5054704;28;20045;-61
2023/08/19 06:23:31;;;;;;;7.25;3.25;;;;;;;25.92;61.59;100850.19;5054805;28;20049;-62
2023/08/19 06:25:58;;;;;;;9.88;3.30;;;;;;;25.65;62.16;100854.81;5044272;28;20053;-61
2023/08/19 06:28:26;;;;;;;8.38;3.72;;;;;;;25.76;61.54;100852.72;5072886;28;20048;-62
2023/08/19 06:30:54;;;;;;;6.68;3.33;;;;;;;25.69;61.89;100869.69;5058325;28;20443;-63
2023/08/19 06:33:21;;;;;;;8.77;3.58;;;;;;;26.01;61.25;100881.59;5055155;28;20053;-63
2023/08/19 06:35:49;;;;;;;6.80;3.17;;;;;;;26.04;60.94;100884.44;5053125;28;20067;-63
2023/08/19 06:38:26;;;;;;;9.13;3.47;;;;;;;25.87;61.23;100876.84;5054458;28;20063;-65
2023/08/19 06:41:00;;;;;;;8.93;3.47;;;;;;;25.86;61.69;100882.88;5053994;28;20061;-65
2023/08/19 06:43:30;;;;;;;6.72;3.45;;;;;;;26.10;61.30;100894.03;5054739;28;20065;-63
2023/08/19 06:46:00;;;;;;;8.88;3.63;;;;;;;25.91;61.39;100893.78;5053962;28;20408;-62
2023/08/19 06:48:28;;;;;;;11.20;3.42;;;;;;;25.47;62.78;100894.41;5054248;28;20060;-63
2023/08/19 06:50:59;;;;;;;10.80;3.60;;;;;;;25.48;62.85;100904.47;5046185;28;20064;-65
2023/08/19 06:53:27;;;;;;;6.60;3.40;;;;;;;25.66;62.96;100901.56;5036680;28;20071;-65
2023/08/19 06:56:18;;;;;;;7.68;3.25;;;;;;;25.79;62.50;100911.16;5052936;28;20053;-64
2023/08/19 06:59:10;;;;;;;12.60;3.60;;;;;;;25.85;62.36;100910.34;5054402;28;20041;-64
2023/08/19 07:01:40;;;;;;;7.20;3.40;;;;;;;25.75;62.59;100918.84;5022932;28;20055;-63
2023/08/19 07:04:09;;;;;;;8.43;3.15;;;;;;;25.74;62.48;100917.22;5053925;28;20045;-64
2023/08/19 07:06:37;;;;;;;9.77;3.13;;;;;;;25.29;63.71;100931.13;5054166;28;20048;-64
2023/08/19 07:09:08;;;;;;;7.15;2.88;;;;;;;25.40;64.37;100934.72;5052510;28;20056;-63
2023/08/19 07:11:36;;;;;;;8.65;3.13;;;;;;;25.31;64.73;100927.88;5052777;28;20071;-65
2023/08/19 07:14:04;;;;;;;9.60;3.45;;;;;;;25.48;64.06;100930.66;5052750;28;20080;-62
2023/08/19 07:16:35;;;;;;;10.75;3.00;;;;;;;25.52;64.10;100925.78;5054713;28;20064;-63
2023/08/19 07:19:05;;;;;;;7.13;2.78;;;;;;;25.28;63.25;100918.22;5036617;28;20052;-63
2023/08/19 07:21:34;;;;;;;6.32;2.50;;;;;;;24.58;65.61;100911.91;5053683;28;20519;-62
2023/08/19 07:24:02;;;;;;;7.35;2.50;;;;;;;24.86;65.65;100909.84;5053456;28;20060;-62
2023/08/19 07:26:31;;;;;;;8.50;2.58;;;;;;;25.08;64.74;100919.91;5052035;28;20056;-63
2023/08/19 07:28:59;;;;;;;6.50;2.88;;;;;;;25.16;64.54;100929.94;5053728;28;20053;-63
2023/08/19 07:31:27;;;;;;;8.35;3.17;;;;;;;25.32;64.06;100937.94;5033565;28;20049;-63
2023/08/19 07:33:55;;;;;;;7.75;2.83;;;;;;;25.18;64.14;100938.78;5032258;28;20057;-63
2023/08/19 07:36:22;;;;;;;8.82;2.90;;;;;;;25.18;64.29;100950.06;5050274;28;20049;-62
2023/08/19 07:38:50;;;;;;;6.18;2.55;;;;;;;25.10;64.92;100967.41;5053283;28;20041;-63
2023/08/19 07:41:21;;;;;;;6.13;2.38;;;;;;;25.42;63.09;100985.88;5051657;28;20536;-61
2023/08/19 07:43:48;;;;;;;6.07;2.40;;;;;;;25.04;63.85;100972.66;5047069;28;20041;-61
2023/08/19 07:46:17;;;;;;;6.70;2.45;;;;;;;24.81;64.95;100952.53;5051815;28;20057;-61
2023/08/19 07:48:44;;;;;;;4.72;2.35;;;;;;;24.69;65.74;100952.16;5052795;28;20045;-60
2023/08/19 07:51:12;;;;;;;12.95;3.30;;;;;;;25.01;65.02;100962.19;5051418;28;20057;-62
2023/08/19 07:53:40;;;;;;;9.55;3.35;;;;;;;24.64;65.62;100977.88;5052224;28;20707;-60
2023/08/19 07:56:08;;;;;;;5.82;2.50;;;;;;;24.73;66.19;100996.03;5051440;28;20088;-62
2023/08/19 07:58:36;;;;;;;6.60;2.78;;;;;;;24.83;65.03;101012.13;5051241;28;20044;-61
2023/08/19 08:01:03;;;;;;;8.88;2.50;;;;;;;24.82;65.64;101027.44;5053777;28;20063;-61
2023/08/19 08:03:32;;;;;;;8.70;3.72;;;;;;;24.52;65.94;101029.78;5056195;28;20056;-63
2023/08/19 08:06:00;;;;;;;9.55;3.38;;;;;;;24.61;66.37;101026.56;5058302;28;20045;-61
2023/08/19 08:08:28;;;;;;;8.38;3.05;;;;;;;24.53;66.40;101020.94;5055815;28;20603;-60
2023/08/19 08:10:55;;;;;;;8.32;3.00;;;;;;;24.65;65.84;101035.84;5057068;28;20052;-61
2023/08/19 08:13:23;;;;;;;6.35;2.53;;;;;;;24.60;66.58;101062.38;5056419;28;20389;-61
2023/08/19 08:15:50;;;;;;;9.63;3.15;;;;;;;24.58;67.31;101098.63;5056883;28;20059;-61
2023/08/19 08:18:17;;;;;;;8.43;2.92;;;;;;;24.53;68.69;101111.06;5057164;28;20397;-63
2023/08/19 08:20:45;;;;;;;10.60;3.28;;;;;;;24.86;67.71;101123.25;5055694;28;20041;-61
2023/08/19 08:23:13;;;;;;;7.63;2.90;;;;;;;25.04;67.23;101093.06;5055510;28;20049;-61
2023/08/19 08:25:40;;;;;;;8.95;3.20;;;;;;;24.55;69.58;101088.13;5056730;28;20064;-61
2023/08/19 08:28:08;;;;;;;7.35;2.95;;;;;;;24.63;70.22;101097.41;5056889;28;20527;-60
2023/08/19 08:30:35;;;;;;;9.13;3.38;;;;;;;24.71;70.60;101094.22;5069695;28;20044;-62
2023/08/19 08:33:05;;;;;;;8.85;3.40;;;;;;;24.75;70.29;101072.50;5075961;28;20135;-62
2023/08/19 08:35:33;;;;;;;7.40;3.28;;;;;;;24.67;71.65;101073.66;5065255;28;20048;-61
2023/08/19 08:38:00;;;;;;;10.90;3.42;;;;;;;24.86;70.54;101084.59;5056459;28;20060;-61
2023/08/19 08:40:32;;;;;;;7.20;3.00;;;;;;;24.80;70.66;101086.19;5075789;28;20048;-62
2023/08/19 08:43:02;;;;;;;8.43;4.75;;;;;;;24.72;71.30;101080.97;5075042;28;20057;-61
2023/08/19 08:45:31;;;;;;;11.55;4.07;;;;;;;24.66;71.63;101080.50;5056339;28;20049;-61
2023/08/19 08:48:02;;;;;;;7.68;4.45;;;;;;;24.77;72.60;101095.47;5056447;28;20076;-60
2023/08/19 08:50:31;;;;;;;9.30;3.20;;;;;;;24.85;72.00;101107.53;5056246;28;20041;-61
2023/08/19 08:52:58;;;;;;;8.18;3.22;;;;;;;24.84;72.84;101111.56;5056313;28;20049;-62
2023/08/19 08:55:26;;;;;;;8.52;3.10;;;;;;;24.74;73.07;101098.28;5054917;28;20056;-61
2023/08/19 08:57:54;;;;;;;12.65;3.00;;;;;;;24.88;72.72;101085.00;5055173;28;20053;-61
2023/08/19 09:00:21;;;;;;;8.50;2.97;;;;;;;24.88;73.28;101068.09;5055916;28;20408;-62
2023/08/19 09:02:50;;;;;;;7.72;2.78;;;;;;;24.87;73.15;101069.31;5056557;28;20049;-60
2023/08/19 09:05:19;;;;;;;9.55;2.85;;;;;;;24.52;73.27;101120.72;5056353;28;20065;-62
2023/08/19 09:07:47;;;;;;;11.70;3.47;;;;;;;24.65;73.23;101112.72;5054759;28;20049;-61
2023/08/19 09:10:16;;;;;;;7.35;3.00;;;;;;;24.55;74.62;101082.50;5056008;28;20059;-61
2023/08/19 09:12:58;;;;;;;7.22;3.03;;;;;;;24.64;75.05;101113.91;5055290;28;20603;-61
2023/08/19 09:15:29;;;;;;;6.28;3.00;;;;;;;24.56;74.88;101140.47;5054926;28;20049;-62
2023/08/19 09:17:58;;;;;;;9.40;3.30;;;;;;;24.62;74.74;101149.34;5054532;28;20041;-62
2023/08/19 09:20:25;;;;;;;7.00;3.05;;;;;;;24.95;73.62;101137.75;5055772;28;20495;-61
2023/08/19 09:23:06;;;;;;;11.32;3.53;;;;;;;24.68;74.38;101156.19;5055862;28;20045;-61
2023/08/19 09:25:37;;;;;;;10.02;4.95;;;;;;;24.60;74.91;101177.88;5035708;28;20408;-62
2023/08/19 09:28:05;;;;;;;;;;;;;;;24.57;76.10;101189.13;5053364;28;20511;-61
2023/08/19 09:30:33;;;;;;;16.27;9.88;;;;;;;24.70;76.01;101179.97;5067733;28;19920;-62
2023/08/19 09:33:02;;;;;;;9.32;4.95;;;;;;;24.59;76.98;101184.72;5074170;28;20079;-62
2023/08/19 09:35:38;;;;;;;13.13;3.90;;;;;;;24.55;77.41;101208.47;5066370;28;20052;-64
2023/08/19 09:38:25;;;;;;;9.95;3.38;;;;;;;24.47;78.46;101224.53;5055551;28;20418;-63
2023/08/19 09:41:01;;;;;;;9.32;3.75;;;;;;;24.45;79.11;101201.56;5053142;28;20041;-63
2023/08/19 09:43:28;;;;;;;10.52;3.28;;;;;;;24.41;79.27;101172.56;5042364;28;20055;-64
2023/08/19 09:45:57;;;;;;;8.57;4.15;;;;;;;24.50;78.66;101187.09;5054833;28;20056;-63
2023/08/19 09:48:25;;;;;;;8.80;4.13;;;;;;;24.45;79.48;101198.75;5041987;28;20053;-63
2023/08/19 09:50:53;;;;;;;13.93;4.13;;;;;;;24.59;79.28;101223.34;5044215;28;20044;-63
2023/08/19 09:53:21;;;;;;;9.05;3.83;;;;;;;24.34;79.98;101237.31;5051099;28;20049;-63
2023/08/19 09:55:49;;;;;;;12.50;3.70;;;;;;;24.34;79.27;101229.69;5035491;28;20049;-64
2023/08/19 09:58:17;;;;;;;12.82;4.40;;;;;;;24.31;80.18;101238.94;5035390;28;20081;-65
2023/08/19 10:00:46;;;;;;;13.77;4.53;;;;;;;24.30;80.51;101222.44;5035079;28;20056;-64
2023/08/19 10:03:15;;;;;;;12.18;7.15;;;;;;;24.19;81.64;101219.56;5046518;28;20064;-63
2023/08/19 10:05:44;;;;;;;12.48;5.35;;;;;;;24.04;82.40;101217.81;5055409;28;20056;-63
2023/08/19 10:08:20;;;;;;;11.37;5.80;;;;;;;24.03;82.57;101209.78;5053484;28;20080;-64
2023/08/19 10:10:48;;;;;;;8.65;4.10;;;;;;;24.02;83.18;101185.66;5054789;28;20428;-64
2023/08/19 10:13:16;;;;;;;11.63;4.30;;;;;;;24.00;84.08;101204.94;5054837;28;20056;-62
2023/08/19 10:15:44;;;;;;;12.15;3.88;;;;;;;23.91;83.67;101229.78;5054962;28;20044;-64
2023/08/19 10:18:19;;;;;;;12.32;4.65;;;;;;;23.82;84.33;101237.75;5054905;28;20619;-64
2023/08/19 10:20:51;;;;;;;11.40;3.80;;;;;;;23.77;84.59;101219.22;5054318;28;20048;-63
2023/08/19 10:23:19;;;;;;;12.60;4.47;;;;;;;23.96;84.61;101224.59;5052573;28;20605;-65
2023/08/19 10:25:47;;;;;;;9.57;3.92;;;;;;;23.99;84.12;101229.47;5054424;28;20061;-63
2023/08/19 10:28:25;;;;;;;8.45;3.90;;;;;;;24.30;83.68;101216.78;5054459;28;20055;-63
2023/08/19 10:31:09;;;;;;;8.20;3.28;;;;;;;24.44;83.32;101228.91;5069279;28;20044;-63
2023/08/19 10:33:42;;;;;;;10.45;4.10;;;;;;;24.38;84.30;101238.16;5056437;28;20049;-62
2023/08/19 10:36:20;;;;;;;10.75;7.05;;;;;;;24.51;83.68;101240.22;5058139;28;20095;-64
2023/08/19 10:38:56;;;;;;;10.27;4.30;;;;;;;24.51;82.82;101233.81;5053753;28;20053;-64
2023/08/19 10:41:38;;;;;;;11.48;4.15;;;;;;;24.53;82.53;101246.28;5054133;28;20053;-64
2023/08/19 10:44:12;;;;;;;8.35;3.50;;;;;;;24.65;81.75;101235.88;5054361;28;20053;-64
2023/08/19 10:46:47;;;;;;;9.25;3.33;;;;;;;24.72;80.78;101236.75;5054293;28;20045;-62
2023/08/19 10:49:18;;;;;;;7.60;3.70;;;;;;;24.71;81.11;101223.03;5053751;28;20053;-63
2023/08/19 10:51:57;;;;;;;8.13;3.35;;;;;;;24.66;80.35;101227.00;5054035;28;20048;-63
2023/08/19 10:54:26;;;;;;;8.55;3.38;;;;;;;24.77;80.07;101230.72;5054149;28;20056;-63
2023/08/19 10:57:13;;;;;;;8.40;3.55;;;;;;;24.78;78.51;101217.41;5054294;28;20041;-64
2023/08/19 10:59:48;;;;;;;7.05;3.08;;;;;;;24.82;78.87;101223.88;5054054;28;20041;-66
2023/08/19 11:02:15;;;;;;;8.30;2.90;;;;;;;25.05;77.83;101230.00;5052431;28;20052;-64
2023/08/19 11:04:45;;;;;;;8.13;3.10;;;;;;;25.31;76.18;101226.81;5052785;28;20460;-63
2023/08/19 11:07:13;;;;;;;11.85;2.88;;;;;;;25.32;74.90;101222.78;5053779;28;20056;-62
2023/08/19 11:09:43;;;;;;;13.15;2.80;;;;;;;25.29;73.15;101226.41;5052718;28;20068;-61
2023/08/19 11:12:11;;;;;;;7.68;2.85;;;;;;;25.57;72.28;101226.47;5052517;28;20672;-61
2023/08/19 11:14:39;;;;;;;7.15;3.30;;;;;;;25.79;72.29;101232.91;5035506;28;20496;-61
2023/08/19 11:17:12;;;;;;;8.63;3.00;;;;;;;25.85;71.77;101246.22;5052601;28;20048;-60
2023/08/19 11:19:43;;;;;;;8.07;2.97;;;;;;;26.05;70.34;101243.78;5053927;28;20614;-63
2023/08/19 11:22:14;;;;;;;5.50;2.35;;;;;;;26.04;68.92;101239.38;5052557;28;20555;-62
2023/08/19 11:24:45;;;;;;;5.00;2.38;;;;;;;26.26;67.82;101244.56;5052198;28;20032;-62
2023/08/19 11:27:13;;;;;;;7.07;2.50;;;;;;;26.18;67.44;101245.00;5053201;28;20865;-62
2023/08/19 11:29:46;;;;;;;4.55;1.88;;;;;;;26.41;64.93;101240.47;5059208;28;20063;-63
2023/08/19 11:32:20;;;;;;;5.55;1.90;;;;;;;26.19;64.10;101232.47;5071914;28;20059;-65